createdAt,value
2023-05-03T00:00:18.343Z,97.30
2023-05-03T00:02:45.237Z,97.30
2023-05-03T00:05:13.121Z,97.30
2023-05-03T00:07:43.864Z,97.30
2023-05-03T00:10:16.333Z,97.40
2023-05-03T00:12:44.226Z,97.50
2023-05-03T00:15:11.772Z,97.50
2023-05-03T00:17:38.846Z,97.60
2023-05-03T00:20:07.121Z,97.70
2023-05-03T00:22:34.098Z,97.90
2023-05-03T00:25:01.081Z,97.80
2023-05-03T00:27:28.266Z,97.80
2023-05-03T00:29:54.952Z,97.80
2023-05-03T00:32:26.138Z,97.80
2023-05-03T00:34:57.398Z,97.90
2023-05-03T00:37:25.413Z,97.90
2023-05-03T00:39:52.812Z,98.00
2023-05-03T00:42:20.097Z,98.00
2023-05-03T00:44:46.882Z,98.00
2023-05-03T00:47:13.700Z,98.10
2023-05-03T00:49:41.940Z,98.00
2023-05-03T00:52:09.615Z,98.00
2023-05-03T00:54:37.976Z,98.00
2023-05-03T00:57:05.754Z,98.00
2023-05-03T00:59:34.300Z,98.20
2023-05-03T01:02:01.611Z,98.20
2023-05-03T01:04:29.482Z,98.20
2023-05-03T01:07:36.710Z,98.30
2023-05-03T01:10:09.594Z,98.30
2023-05-03T01:12:53.380Z,98.30
2023-05-03T01:15:31.700Z,98.40
2023-05-03T01:18:04.393Z,98.50
2023-05-03T01:20:34.719Z,98.50
2023-05-03T01:23:30.871Z,98.60
2023-05-03T01:25:58.101Z,98.50
2023-05-03T01:28:24.905Z,98.40
2023-05-03T01:30:54.178Z,98.50
2023-05-03T01:33:33.184Z,98.40
2023-05-03T01:36:13.903Z,98.50
2023-05-03T01:38:41.189Z,98.40
2023-05-03T01:41:12.122Z,98.50
2023-05-03T01:43:41.564Z,98.60
2023-05-03T01:46:08.498Z,98.60
2023-05-03T01:48:35.468Z,98.70
2023-05-03T01:51:02.313Z,98.60
2023-05-03T01:53:29.068Z,98.70
2023-05-03T01:55:55.793Z,98.70
2023-05-03T01:58:22.534Z,98.60
2023-05-03T02:00:49.549Z,98.60
2023-05-03T02:03:16.272Z,98.70
2023-05-03T02:05:43.104Z,98.70
2023-05-03T02:08:09.794Z,98.90
2023-05-03T02:10:36.614Z,98.90
2023-05-03T02:13:03.755Z,98.80
2023-05-03T02:15:30.505Z,98.80
2023-05-03T02:17:58.535Z,98.90
2023-05-03T02:20:25.378Z,98.90
2023-05-03T02:22:52.179Z,98.90
2023-05-03T02:25:18.857Z,98.90
2023-05-03T02:27:45.600Z,99.00
2023-05-03T02:30:13.146Z,99.10
2023-05-03T02:32:39.913Z,99.00
2023-05-03T02:35:07.434Z,99.00
2023-05-03T02:37:34.194Z,99.00
2023-05-03T02:40:01.204Z,99.20
2023-05-03T02:42:28.217Z,99.40
2023-05-03T02:44:54.950Z,99.40
2023-05-03T02:47:22.069Z,99.40
2023-05-03T02:49:48.947Z,99.40
2023-05-03T02:52:15.805Z,99.40
2023-05-03T02:54:42.560Z,99.30
2023-05-03T02:57:09.259Z,99.30
2023-05-03T02:59:36.051Z,99.80
2023-05-03T03:02:02.829Z,99.40
2023-05-03T03:04:29.699Z,99.50
2023-05-03T03:06:56.858Z,99.40
2023-05-03T03:09:23.671Z,99.60
2023-05-03T03:11:53.367Z,99.70
2023-05-03T03:14:20.322Z,99.70
2023-05-03T03:16:47.068Z,99.80
2023-05-03T03:19:13.917Z,99.70
2023-05-03T03:21:40.814Z,99.60
2023-05-03T03:24:07.731Z,99.60
2023-05-03T03:26:34.433Z,99.70
2023-05-03T03:29:01.417Z,99.80
2023-05-03T03:31:28.238Z,99.80
2023-05-03T03:33:55.001Z,99.90
2023-05-03T03:36:21.776Z,99.90
2023-05-03T03:38:48.679Z,99.90
2023-05-03T03:41:15.448Z,99.90
2023-05-03T03:43:42.127Z,99.90
2023-05-03T03:46:08.841Z,99.90
2023-05-03T03:48:35.672Z,99.90
2023-05-03T03:51:02.505Z,99.90
2023-05-03T03:53:29.293Z,99.90
2023-05-03T03:55:56.457Z,99.90
2023-05-03T03:58:23.261Z,99.90
2023-05-03T04:00:50.515Z,99.90
2023-05-03T04:03:17.559Z,99.90
2023-05-03T04:05:44.423Z,99.90
2023-05-03T04:08:11.318Z,99.90
2023-05-03T04:10:38.066Z,99.90
2023-05-03T04:13:04.808Z,99.90
2023-05-03T04:15:31.675Z,99.90
2023-05-03T04:17:58.467Z,99.90
2023-05-03T04:20:25.382Z,99.90
2023-05-03T04:22:52.165Z,99.90
2023-05-03T04:25:19.080Z,99.90
2023-05-03T04:27:46.244Z,99.90
2023-05-03T04:30:15.172Z,99.90
2023-05-03T04:32:43.097Z,99.90
2023-05-03T04:35:10.878Z,99.90
2023-05-03T04:37:38.561Z,99.90
2023-05-03T04:40:08.771Z,99.90
2023-05-03T04:42:39.065Z,99.90
2023-05-03T04:45:09.774Z,99.90
2023-05-03T04:47:37.187Z,99.90
2023-05-03T04:50:04.633Z,99.90
2023-05-03T04:52:31.877Z,99.90
2023-05-03T04:54:58.620Z,99.90
2023-05-03T04:57:25.614Z,99.90
2023-05-03T04:59:54.061Z,99.90
2023-05-03T05:02:21.661Z,99.90
2023-05-03T05:04:48.494Z,99.90
2023-05-03T05:07:15.286Z,99.90
2023-05-03T05:09:42.088Z,99.90
2023-05-03T05:12:09.389Z,99.90
2023-05-03T05:14:36.202Z,99.90
2023-05-03T05:17:03.095Z,99.90
2023-05-03T05:19:29.965Z,99.90
2023-05-03T05:21:56.734Z,99.90
2023-05-03T05:24:23.435Z,99.90
2023-05-03T05:26:50.451Z,99.90
2023-05-03T05:29:17.254Z,99.90
2023-05-03T05:31:44.006Z,99.90
2023-05-03T05:34:10.953Z,99.90
2023-05-03T05:36:37.825Z,99.90
2023-05-03T05:39:04.865Z,99.90
2023-05-03T05:41:31.569Z,99.90
2023-05-03T05:44:01.598Z,99.90
2023-05-03T05:46:28.384Z,99.90
2023-05-03T05:48:55.160Z,99.90
2023-05-03T05:51:22.031Z,99.90
2023-05-03T05:53:48.796Z,99.90
2023-05-03T05:56:16.193Z,99.90
2023-05-03T05:58:43.158Z,99.90
2023-05-03T06:01:10.722Z,99.90
2023-05-03T06:03:37.458Z,99.90
2023-05-03T06:06:04.414Z,99.90
2023-05-03T06:08:31.431Z,99.90
2023-05-03T06:10:58.203Z,99.90
2023-05-03T06:13:25.022Z,99.90
2023-05-03T06:15:51.901Z,99.90
2023-05-03T06:18:18.674Z,99.90
2023-05-03T06:20:49.775Z,99.90
2023-05-03T06:23:16.884Z,99.90
2023-05-03T06:25:47.211Z,99.90
2023-05-03T06:28:14.103Z,99.90
2023-05-03T06:30:40.866Z,99.90
2023-05-03T06:33:10.833Z,99.90
2023-05-03T06:35:37.622Z,99.90
2023-05-03T06:38:04.434Z,99.90
2023-05-03T06:40:31.261Z,99.90
2023-05-03T06:42:57.918Z,99.90
2023-05-03T06:45:25.033Z,99.90
2023-05-03T06:47:51.761Z,99.90
2023-05-03T06:50:20.167Z,99.90
2023-05-03T06:52:47.076Z,99.90
2023-05-03T06:55:13.890Z,99.90
2023-05-03T06:57:42.700Z,99.90
2023-05-03T07:00:10.229Z,99.90
2023-05-03T07:02:37.417Z,99.90
2023-05-03T07:05:04.760Z,99.90
2023-05-03T07:07:31.571Z,99.90
2023-05-03T07:09:58.302Z,99.90
2023-05-03T07:12:28.489Z,99.90
2023-05-03T07:14:56.053Z,99.90
2023-05-03T07:17:23.175Z,99.90
2023-05-03T07:19:50.655Z,99.90
2023-05-03T07:22:18.008Z,99.90
2023-05-03T07:24:44.782Z,99.90
2023-05-03T07:27:11.575Z,99.90
2023-05-03T07:29:38.318Z,99.90
2023-05-03T07:32:05.554Z,99.90
2023-05-03T07:34:32.791Z,99.90
2023-05-03T07:36:59.643Z,99.90
2023-05-03T07:39:26.412Z,99.90
2023-05-03T07:41:53.413Z,99.90
2023-05-03T07:44:20.360Z,99.90
2023-05-03T07:46:47.124Z,99.90
2023-05-03T07:49:13.867Z,99.90
2023-05-03T07:51:41.360Z,99.90
2023-05-03T07:54:08.129Z,99.90
2023-05-03T07:56:34.967Z,99.90
2023-05-03T08:01:31.583Z,99.90
2023-05-03T08:03:58.711Z,99.90
2023-05-03T08:06:26.159Z,99.90
2023-05-03T08:08:53.045Z,99.90
2023-05-03T08:11:19.789Z,99.90
2023-05-03T08:13:46.660Z,99.90
2023-05-03T08:16:13.764Z,99.90
2023-05-03T08:18:40.985Z,99.90
2023-05-03T08:21:09.695Z,99.90
2023-05-03T08:23:36.728Z,99.90
2023-05-03T08:26:04.359Z,99.90
2023-05-03T08:28:31.386Z,99.90
2023-05-03T08:30:58.313Z,99.90
2023-05-03T08:33:25.630Z,99.90
2023-05-03T08:35:52.592Z,99.90
2023-05-03T08:38:19.297Z,99.90
2023-05-03T08:40:50.998Z,99.90
2023-05-03T08:43:20.590Z,99.90
2023-05-03T08:45:47.356Z,99.90
2023-05-03T08:48:14.462Z,99.90
2023-05-03T08:50:42.589Z,99.90
2023-05-03T08:53:10.585Z,99.90
2023-05-03T08:55:40.641Z,99.90
2023-05-03T08:58:10.729Z,99.90
2023-05-03T09:00:38.459Z,99.90
2023-05-03T09:03:05.729Z,99.90
2023-05-03T09:05:34.591Z,99.90
2023-05-03T09:08:06.060Z,99.90
2023-05-03T09:10:36.671Z,99.90
2023-05-03T09:13:03.647Z,99.90
2023-05-03T09:15:31.112Z,99.90
2023-05-03T09:18:20.513Z,99.90
2023-05-03T09:20:52.825Z,99.90
2023-05-03T09:23:26.113Z,99.90
2023-05-03T09:25:53.002Z,99.90
2023-05-03T09:28:20.908Z,99.90
2023-05-03T09:30:50.323Z,99.90
2023-05-03T09:33:21.446Z,99.90
2023-05-03T09:36:02.412Z,99.90
2023-05-03T09:38:39.056Z,99.90
2023-05-03T09:41:08.550Z,99.90
2023-05-03T09:43:38.566Z,99.90
2023-05-03T09:46:29.269Z,99.90
2023-05-03T09:48:57.304Z,99.90
2023-05-03T09:51:24.547Z,99.90
2023-05-03T09:53:51.391Z,99.60
2023-05-03T09:56:20.782Z,99.30
2023-05-03T09:58:47.826Z,99.90
2023-05-03T10:01:16.240Z,99.90
2023-05-03T10:03:44.057Z,99.90
2023-05-03T10:06:26.868Z,99.90
2023-05-03T10:09:10.974Z,99.60
2023-05-03T10:11:37.778Z,99.30
2023-05-03T10:14:07.080Z,98.90
2023-05-03T10:16:38.694Z,99.00
2023-05-03T10:19:36.084Z,99.30
2023-05-03T10:22:08.096Z,99.00
2023-05-03T10:24:36.616Z,98.70
2023-05-03T10:27:07.060Z,97.70
2023-05-03T10:29:37.409Z,97.60
2023-05-03T10:32:05.648Z,97.60
2023-05-03T10:34:34.192Z,97.70
2023-05-03T10:37:09.700Z,97.70
2023-05-03T10:39:37.226Z,97.60
2023-05-03T10:42:09.046Z,97.00
2023-05-03T10:44:51.244Z,98.10
2023-05-03T10:47:23.665Z,97.90
2023-05-03T10:50:34.618Z,97.10
2023-05-03T10:53:01.334Z,97.10
2023-05-03T10:55:28.184Z,96.40
2023-05-03T10:57:58.939Z,96.00
2023-05-03T11:00:44.536Z,95.60
2023-05-03T11:03:45.386Z,95.80
2023-05-03T11:06:33.793Z,96.00
2023-05-03T11:09:02.031Z,96.20
2023-05-03T11:11:28.806Z,95.80
2023-05-03T11:13:56.026Z,96.00
2023-05-03T11:16:22.992Z,96.70
2023-05-03T11:18:51.193Z,95.30
2023-05-03T11:21:18.898Z,95.40
2023-05-03T11:23:45.931Z,95.20
2023-05-03T11:26:13.692Z,95.10
2023-05-03T11:28:42.308Z,96.00
2023-05-03T11:31:10.214Z,95.30
2023-05-03T11:33:38.732Z,95.70
2023-05-03T11:36:08.132Z,95.00
2023-05-03T11:38:35.893Z,94.50
2023-05-03T11:41:16.635Z,93.60
2023-05-03T11:43:54.929Z,93.50
2023-05-03T11:46:33.702Z,93.30
2023-05-03T11:49:02.162Z,92.90
2023-05-03T11:51:28.913Z,94.20
2023-05-03T11:53:56.905Z,93.20
2023-05-03T11:56:24.423Z,93.40
2023-05-03T11:58:57.215Z,93.10
2023-05-03T12:01:29.438Z,92.20
2023-05-03T12:03:58.387Z,91.70
2023-05-03T12:06:27.818Z,91.90
2023-05-03T12:08:56.679Z,91.00
2023-05-03T12:11:27.064Z,90.60
2023-05-03T12:14:02.845Z,89.00
2023-05-03T12:16:52.910Z,90.30
2023-05-03T12:19:33.886Z,90.30
2023-05-03T12:22:18.176Z,90.30
2023-05-03T12:24:49.745Z,90.40
2023-05-03T12:27:18.970Z,89.80
2023-05-03T12:29:47.565Z,88.10
2023-05-03T12:32:15.132Z,89.30
2023-05-03T12:34:42.798Z,87.80
2023-05-03T12:37:11.903Z,86.50
2023-05-03T12:39:40.279Z,85.40
2023-05-03T12:42:08.883Z,85.90
2023-05-03T12:44:41.689Z,85.40
2023-05-03T12:47:10.435Z,86.10
2023-05-03T12:49:39.108Z,84.40
2023-05-03T12:52:35.458Z,84.60
2023-05-03T12:54:55.780Z,84.70
2023-05-03T12:57:24.264Z,84.60
2023-05-03T12:59:54.631Z,83.50
2023-05-03T13:05:00.415Z,81.50
2023-05-03T13:07:30.692Z,81.30
2023-05-03T13:12:30.824Z,80.50
2023-05-03T13:14:57.862Z,81.30
2023-05-03T13:17:25.167Z,78.50
2023-05-03T13:19:52.785Z,79.10
2023-05-03T13:22:19.597Z,82.10
2023-05-03T13:24:47.765Z,79.90
2023-05-03T13:27:16.105Z,79.50
2023-05-03T13:29:42.828Z,79.70
2023-05-03T13:32:09.757Z,79.20
2023-05-03T13:34:36.851Z,76.60
2023-05-03T13:37:07.332Z,77.40
2023-05-03T13:39:34.152Z,75.30
2023-05-03T13:42:01.287Z,73.00
2023-05-03T13:44:28.093Z,73.20
2023-05-03T13:46:55.588Z,73.30
2023-05-03T13:49:22.515Z,72.20
2023-05-03T13:51:49.376Z,72.90
2023-05-03T13:54:16.226Z,73.10
2023-05-03T13:56:43.321Z,74.00
2023-05-03T13:59:13.826Z,73.50
2023-05-03T14:01:41.270Z,72.90
2023-05-03T14:04:09.568Z,71.20
2023-05-03T14:06:38.287Z,69.60
2023-05-03T14:09:07.295Z,70.00
2023-05-03T14:11:34.188Z,69.70
2023-05-03T14:14:01.302Z,69.90
2023-05-03T14:18:57.977Z,68.00
2023-05-03T14:21:25.013Z,68.00
2023-05-03T14:23:52.170Z,68.90
2023-05-03T14:26:19.853Z,68.90
2023-05-03T14:28:47.133Z,67.20
2023-05-03T14:31:14.206Z,68.60
2023-05-03T14:33:41.073Z,67.50
2023-05-03T14:36:08.753Z,67.90
2023-05-03T14:38:37.299Z,68.50
2023-05-03T14:41:04.218Z,67.10
2023-05-03T14:43:31.613Z,67.30
2023-05-03T14:45:58.386Z,67.70
2023-05-03T14:48:25.436Z,67.40
2023-05-03T14:50:52.937Z,67.20
2023-05-03T14:53:20.120Z,66.90
2023-05-03T14:55:46.902Z,65.30
2023-05-03T14:58:13.707Z,67.40
2023-05-03T15:00:41.466Z,66.80
2023-05-03T15:03:11.872Z,66.00
2023-05-03T15:05:46.771Z,65.30
2023-05-03T15:08:19.300Z,66.30
2023-05-03T15:10:47.747Z,65.90
2023-05-03T15:13:15.857Z,66.60
2023-05-03T15:15:43.724Z,65.70
2023-05-03T15:18:11.297Z,65.40
2023-05-03T15:20:38.976Z,65.50
2023-05-03T15:23:06.458Z,66.10
2023-05-03T15:25:33.307Z,63.80
2023-05-03T15:28:03.818Z,63.00
2023-05-03T15:30:32.219Z,63.20
2023-05-03T15:32:59.143Z,63.90
2023-05-03T15:35:26.032Z,64.30
2023-05-03T15:37:52.802Z,63.40
2023-05-03T15:40:23.014Z,61.10
2023-05-03T15:42:51.984Z,60.00
2023-05-03T15:45:19.185Z,59.20
2023-05-03T15:47:46.327Z,61.40
2023-05-03T15:50:13.523Z,61.80
2023-05-03T15:52:40.568Z,61.70
2023-05-03T15:55:09.496Z,62.40
2023-05-03T15:57:37.271Z,63.20
2023-05-03T16:00:09.246Z,62.90
2023-05-03T16:02:36.143Z,62.50
2023-05-03T16:05:03.046Z,62.70
2023-05-03T16:07:30.094Z,61.60
2023-05-03T16:09:57.062Z,61.30
2023-05-03T16:12:24.533Z,61.70
2023-05-03T16:14:51.354Z,61.30
2023-05-03T16:17:18.155Z,62.20
2023-05-03T16:19:44.904Z,62.00
2023-05-03T16:22:11.596Z,61.60
2023-05-03T16:24:38.435Z,61.90
2023-05-03T16:27:05.239Z,60.80
2023-05-03T16:29:33.801Z,61.60
2023-05-03T16:32:01.185Z,61.80
2023-05-03T16:34:27.983Z,60.90
2023-05-03T16:36:54.697Z,61.20
2023-05-03T16:39:21.599Z,60.70
2023-05-03T16:41:48.407Z,61.00
2023-05-03T16:44:18.438Z,60.30
2023-05-03T16:46:46.408Z,60.10
2023-05-03T16:49:13.296Z,59.20
2023-05-03T16:51:41.197Z,59.60
2023-05-03T16:54:08.086Z,60.50
2023-05-03T16:56:34.955Z,60.00
2023-05-03T16:59:02.978Z,60.10
2023-05-03T17:01:29.790Z,59.70
2023-05-03T17:03:56.930Z,60.20
2023-05-03T17:06:23.703Z,60.00
2023-05-03T17:08:50.554Z,59.60
2023-05-03T17:11:17.313Z,60.40
2023-05-03T17:13:44.471Z,61.10
2023-05-03T17:16:15.229Z,62.00
2023-05-03T17:18:42.683Z,62.10
2023-05-03T17:21:09.958Z,62.10
2023-05-03T17:23:38.368Z,63.00
2023-05-03T17:26:10.876Z,62.70
2023-05-03T17:28:37.984Z,63.30
2023-05-03T17:31:06.475Z,79.60
2023-05-03T17:33:34.697Z,78.70
2023-05-03T17:36:04.770Z,77.70
2023-05-03T17:38:33.153Z,72.40
2023-05-03T17:41:07.601Z,71.90
2023-05-03T17:43:38.495Z,71.50
2023-05-03T17:46:12.420Z,67.90
2023-05-03T17:48:44.476Z,67.20
2023-05-03T17:51:14.141Z,68.70
2023-05-03T17:53:42.386Z,65.30
2023-05-03T17:56:19.173Z,69.60
2023-05-03T17:58:46.785Z,71.20
2023-05-03T18:01:15.789Z,70.20
2023-05-03T18:03:43.167Z,69.20
2023-05-03T18:06:11.918Z,67.20
2023-05-03T18:08:38.721Z,68.20
2023-05-03T18:11:05.584Z,69.00
2023-05-03T18:13:33.362Z,69.10
2023-05-03T18:16:00.617Z,68.90
2023-05-03T18:18:27.405Z,69.30
2023-05-03T18:21:00.850Z,69.40
2023-05-03T18:23:27.921Z,70.00
2023-05-03T18:25:54.748Z,69.90
2023-05-03T18:28:22.796Z,70.80
2023-05-03T18:30:52.730Z,71.90
2023-05-03T18:33:19.945Z,73.00
2023-05-03T18:35:51.067Z,72.60
2023-05-03T18:38:19.153Z,74.40
2023-05-03T18:40:47.033Z,73.90
2023-05-03T18:43:14.347Z,74.40
2023-05-03T18:45:41.621Z,75.40
2023-05-03T18:48:09.545Z,75.00
2023-05-03T18:50:38.599Z,75.20
2023-05-03T18:53:06.324Z,76.60
2023-05-03T18:55:33.140Z,76.40
2023-05-03T18:58:00.672Z,75.70
2023-05-03T19:00:27.834Z,75.90
2023-05-03T19:02:54.708Z,75.80
2023-05-03T19:05:21.626Z,76.80
2023-05-03T19:07:48.781Z,77.00
2023-05-03T19:10:16.716Z,77.00
2023-05-03T19:12:45.169Z,77.30
2023-05-03T19:15:12.388Z,77.30
2023-05-03T19:17:41.988Z,76.60
2023-05-03T19:20:10.447Z,76.40
2023-05-03T19:22:37.569Z,76.70
2023-05-03T19:25:05.436Z,76.90
2023-05-03T19:27:32.823Z,76.70
2023-05-03T19:29:59.700Z,76.80
2023-05-03T19:32:26.545Z,77.20
2023-05-03T19:34:53.387Z,77.40
2023-05-03T19:37:20.520Z,77.80
2023-05-03T19:39:47.283Z,77.70
2023-05-03T19:42:14.150Z,78.20
2023-05-03T19:44:40.998Z,78.30
2023-05-03T19:47:07.793Z,78.70
2023-05-03T19:49:34.546Z,78.60
2023-05-03T19:52:02.356Z,78.30
2023-05-03T19:54:29.907Z,79.50
2023-05-03T19:56:56.676Z,79.90
2023-05-03T19:59:23.596Z,79.70
2023-05-03T20:01:50.483Z,79.80
2023-05-03T20:04:17.320Z,80.00
2023-05-03T20:06:44.093Z,80.10
2023-05-03T20:09:11.993Z,80.80
2023-05-03T20:11:38.789Z,81.00
2023-05-03T20:14:05.619Z,81.50
2023-05-03T20:16:37.302Z,82.30
2023-05-03T20:19:07.055Z,81.10
2023-05-03T20:21:33.780Z,81.80
2023-05-03T20:24:00.638Z,82.60
2023-05-03T20:26:27.435Z,82.50
2023-05-03T20:28:54.184Z,82.50
2023-05-03T20:31:20.977Z,82.70
2023-05-03T20:33:47.719Z,83.10
2023-05-03T20:36:14.540Z,83.50
2023-05-03T20:38:41.417Z,83.60
2023-05-03T20:41:08.416Z,83.30
2023-05-03T20:43:35.129Z,83.80
2023-05-03T20:46:02.107Z,83.90
2023-05-03T20:48:28.959Z,84.50
2023-05-03T20:50:58.637Z,85.00
2023-05-03T20:53:25.546Z,84.70
2023-05-03T20:55:56.565Z,84.90
2023-05-03T20:58:23.390Z,85.20
2023-05-03T21:00:55.384Z,85.40
2023-05-03T21:03:24.714Z,85.60
2023-05-03T21:05:56.362Z,85.40
2023-05-03T21:08:24.178Z,85.60
2023-05-03T21:10:50.957Z,85.50
2023-05-03T21:13:17.737Z,85.50
2023-05-03T21:15:44.606Z,85.60
2023-05-03T21:18:11.507Z,86.00
2023-05-03T21:20:38.352Z,86.40
2023-05-03T21:23:05.870Z,86.90
2023-05-03T21:25:32.629Z,87.10
2023-05-03T21:27:59.510Z,87.60
2023-05-03T21:30:27.793Z,87.70
2023-05-03T21:32:54.628Z,88.40
2023-05-03T21:35:21.472Z,88.20
2023-05-03T21:37:48.937Z,88.30
2023-05-03T21:40:16.561Z,88.20
2023-05-03T21:42:44.150Z,88.60
2023-05-03T21:45:11.957Z,89.30
2023-05-03T21:47:38.934Z,89.30
2023-05-03T21:50:06.692Z,89.60
2023-05-03T21:52:34.144Z,89.80
2023-05-03T21:55:01.084Z,90.00
2023-05-03T21:57:28.166Z,90.00
2023-05-03T21:59:58.465Z,90.00
2023-05-03T22:02:25.591Z,90.20
2023-05-03T22:04:52.993Z,90.30
2023-05-03T22:07:19.867Z,90.40
2023-05-03T22:09:49.518Z,90.40
2023-05-03T22:12:23.265Z,90.60
2023-05-03T22:14:51.836Z,90.60
2023-05-03T22:17:18.929Z,90.80
2023-05-03T22:19:45.746Z,90.80
2023-05-03T22:22:12.561Z,91.00
2023-05-03T22:24:40.712Z,91.10
2023-05-03T22:27:07.780Z,91.10
2023-05-03T22:29:34.598Z,91.10
2023-05-03T22:32:01.503Z,91.30
2023-05-03T22:34:28.363Z,91.40
2023-05-03T22:36:55.217Z,91.40
2023-05-03T22:39:21.921Z,91.50
2023-05-03T22:41:48.660Z,91.60
2023-05-03T22:44:15.385Z,91.70
2023-05-03T22:46:42.650Z,91.80
2023-05-03T22:49:09.757Z,91.70
2023-05-03T22:51:36.561Z,91.90
2023-05-03T22:54:03.363Z,91.90
2023-05-03T22:56:30.345Z,92.00
2023-05-03T22:58:57.122Z,92.10
2023-05-03T23:01:26.345Z,92.20
2023-05-03T23:03:57.052Z,92.20
2023-05-03T23:06:25.043Z,92.20
2023-05-03T23:08:51.856Z,92.40
2023-05-03T23:11:18.621Z,92.40
2023-05-03T23:13:45.880Z,92.60
2023-05-03T23:16:12.889Z,92.90
2023-05-03T23:18:39.688Z,93.10
2023-05-03T23:21:06.591Z,93.10
2023-05-03T23:23:33.439Z,93.10
2023-05-03T23:26:00.164Z,93.20
2023-05-03T23:28:27.255Z,93.30
2023-05-03T23:30:54.657Z,93.30
2023-05-03T23:33:21.800Z,93.40
2023-05-03T23:35:48.976Z,93.40
2023-05-03T23:38:15.861Z,93.50
2023-05-03T23:40:42.623Z,93.40
2023-05-03T23:43:09.365Z,93.60
2023-05-03T23:45:36.055Z,93.30
2023-05-03T23:48:02.898Z,93.50
2023-05-03T23:50:29.757Z,93.50
2023-05-03T23:52:56.792Z,93.50
2023-05-03T23:55:23.504Z,93.70
2023-05-03T23:57:50.445Z,93.60
